Time;durP1;ratioP1;P1;durP2;ratioP2;P2;SDS_P1;SDS_P2;PMS_P1;PMS_P2;Temp;Humidity;BMP_temperature;BMP_pressure;BME280_temperature;BME280_humidity;BME280_pressure;Samples;Min_cycle;Max_cycle;Signal;HPM_P1;HPM_P2
2023/09/05 00:08:27;;;;;;;1.67;1.08;;;;;;;;;;10134590;29;20041;-81
2023/09/05 00:13:32;;;;;;;1.77;0.90;;;;;;;;;;10127996;29;20159;-80
2023/09/05 00:18:38;;;;;;;2.03;1.17;;;;;;;;;;10135224;29;20044;-80
2023/09/05 00:23:42;;;;;;;1.25;1.05;;;;;;;;;;10135716;29;20465;-80
2023/09/05 00:28:50;;;;;;;3.60;1.13;;;;;;;;;;10111947;29;20076;-80
2023/09/05 00:33:54;;;;;;;1.70;0.93;;;;;;;;;;10133784;29;20468;-80
2023/09/05 00:39:05;;;;;;;0.93;0.80;;;;;;;;;;10141772;29;20623;-80
2023/09/05 00:44:13;;;;;;;1.10;0.90;;;;;;;;;;10134508;29;20040;-80
2023/09/05 02:19:38;;;;;;;1.00;0.90;;;;;;;;;;10400437;23;20042;-85
2023/09/05 02:24:42;;;;;;;1.33;0.90;;;;;;;;;;10324045;28;20062;-85
2023/09/05 02:29:49;;;;;;;2.35;1.10;;;;;;;;;;10322574;28;20070;-88
2023/09/05 02:34:54;;;;;;;1.33;0.90;;;;;;;;;;10325158;28;20054;-88
2023/09/05 02:39:58;;;;;;;0.88;0.70;;;;;;;;;;10309130;28;20047;-88
2023/09/05 02:45:02;;;;;;;0.82;0.70;;;;;;;;;;10310286;28;20810;-88
2023/09/05 02:50:08;;;;;;;1.48;0.90;;;;;;;;;;10306079;28;20721;-93
2023/09/05 02:55:11;;;;;;;1.67;0.95;;;;;;;;;;10314763;28;20053;-93
2023/09/05 03:00:19;;;;;;;1.55;1.00;;;;;;;;;;10315240;28;20039;-93
2023/09/05 03:05:26;;;;;;;1.65;1.20;;;;;;;;;;10312508;28;20445;-92
2023/09/05 03:10:45;;;;;;;1.38;0.95;;;;;;;;;;10327070;28;20051;-92
2023/09/05 03:16:13;;;;;;;0.68;0.68;;;;;;;;;;10315055;28;20063;-92
2023/09/05 03:21:22;;;;;;;0.73;0.68;;;;;;;;;;10289651;28;20126;-92
2023/09/05 03:26:26;;;;;;;0.93;0.80;;;;;;;;;;10301912;28;20051;-93
2023/09/05 03:31:30;;;;;;;4.93;1.00;;;;;;;;;;10285163;28;20262;-93
2023/09/05 03:36:38;;;;;;;1.48;1.00;;;;;;;;;;10285398;28;20046;-93
2023/09/05 03:41:41;;;;;;;1.55;0.90;;;;;;;;;;10284951;28;20045;-92
2023/09/05 03:46:46;;;;;;;3.58;1.05;;;;;;;;;;10301134;28;20038;-93
2023/09/05 03:51:57;;;;;;;1.20;0.95;;;;;;;;;;10284140;28;20067;-92
2023/09/05 03:57:02;;;;;;;4.88;0.95;;;;;;;;;;10284095;28;20043;-92
2023/09/05 04:02:07;;;;;;;1.50;0.90;;;;;;;;;;10276333;28;20119;-93
2023/09/05 04:07:13;;;;;;;;;;;;;;;;;;10284744;28;20046;-93
2023/09/05 04:12:16;;;;;;;0.90;0.90;;;;;;;;;;10279502;28;20020;-86
2023/09/05 04:17:20;;;;;;;2.05;1.08;;;;;;;;;;10277280;28;20576;-87
2023/09/05 04:22:26;;;;;;;1.77;0.70;;;;;;;;;;10277563;28;20066;-87
2023/09/05 04:27:30;;;;;;;2.22;0.93;;;;;;;;;;10280213;28;20505;-87
2023/09/05 04:32:34;;;;;;;0.90;0.90;;;;;;;;;;10291097;28;20133;-87
2023/09/05 04:37:38;;;;;;;1.83;0.80;;;;;;;;;;10278585;28;20047;-87
2023/09/05 04:42:42;;;;;;;1.85;1.13;;;;;;;;;;10276757;28;20093;-88
2023/09/05 04:47:45;;;;;;;2.17;1.10;;;;;;;;;;10294209;28;20063;-86
2023/09/05 04:52:50;;;;;;;2.50;1.40;;;;;;;;;;10276222;28;20097;-86
2023/09/05 04:57:53;;;;;;;2.97;1.13;;;;;;;;;;10292088;28;20471;-86
2023/09/05 05:02:57;;;;;;;2.30;1.60;;;;;;;;;;10278097;28;20073;-86
2023/09/05 05:08:01;;;;;;;3.15;1.60;;;;;;;;;;10276901;28;20057;-83
2023/09/05 05:13:05;;;;;;;2.70;1.73;;;;;;;;;;10273966;28;20134;-84
2023/09/05 05:18:08;;;;;;;3.65;2.10;;;;;;;;;;10275681;28;20450;-84
2023/09/05 05:23:13;;;;;;;2.63;1.45;;;;;;;;;;10290938;28;20073;-84
2023/09/05 05:28:16;;;;;;;3.97;1.75;;;;;;;;;;10290222;28;20042;-83
2023/09/05 05:33:20;;;;;;;2.75;1.45;;;;;;;;;;10305275;28;20612;-84
2023/09/05 05:38:24;;;;;;;4.35;1.52;;;;;;;;;;10311629;28;20054;-84
2023/09/05 05:43:29;;;;;;;2.92;1.58;;;;;;;;;;10259246;28;20051;-84
2023/09/05 05:48:32;;;;;;;2.22;1.42;;;;;;;;;;10295623;28;20596;-84
2023/09/05 05:53:37;;;;;;;1.70;1.33;;;;;;;;;;10314182;28;20464;-84
2023/09/05 05:58:40;;;;;;;2.45;1.60;;;;;;;;;;10296352;28;20308;-84
2023/09/05 06:03:44;;;;;;;2.67;1.65;;;;;;;;;;10313891;28;20121;-86
2023/09/05 06:08:48;;;;;;;2.85;1.38;;;;;;;;;;10312686;28;20342;-84
2023/09/05 06:13:52;;;;;;;1.63;1.17;;;;;;;;;;10314373;28;20473;-84
2023/09/05 06:18:55;;;;;;;2.58;1.40;;;;;;;;;;10313160;28;20182;-84
2023/09/05 06:24:01;;;;;;;3.05;1.27;;;;;;;;;;10312518;28;20129;-84
2023/09/05 06:29:05;;;;;;;2.13;1.35;;;;;;;;;;10311553;28;20120;-84
2023/09/05 06:34:08;;;;;;;1.42;1.10;;;;;;;;;;10313572;28;20549;-83
2023/09/05 06:39:13;;;;;;;1.80;1.10;;;;;;;;;;10294702;28;20474;-85
2023/09/05 06:44:16;;;;;;;1.73;1.00;;;;;;;;;;10306359;28;20137;-84
2023/09/05 06:49:19;;;;;;;1.20;1.02;;;;;;;;;;10320727;28;20074;-84
2023/09/05 06:54:24;;;;;;;1.63;1.05;;;;;;;;;;10319261;28;20054;-84
2023/09/05 06:59:27;;;;;;;0.88;0.73;;;;;;;;;;10302244;28;20564;-84
2023/09/05 07:04:31;;;;;;;2.13;1.10;;;;;;;;;;10302638;28;20137;-84
2023/09/05 07:09:36;;;;;;;1.20;1.10;;;;;;;;;;10316539;28;20130;-84
2023/09/05 07:14:39;;;;;;;1.10;0.70;;;;;;;;;;10301989;28;20737;-84
2023/09/05 07:19:45;;;;;;;1.75;0.93;;;;;;;;;;10308801;28;20125;-84
2023/09/05 07:24:49;;;;;;;1.00;0.90;;;;;;;;;;10319398;28;20451;-84
2023/09/05 07:29:53;;;;;;;2.00;1.13;;;;;;;;;;10317725;28;20126;-84
2023/09/05 07:34:56;;;;;;;0.60;0.60;;;;;;;;;;10301549;28;20081;-84
2023/09/05 07:40:01;;;;;;;1.42;0.65;;;;;;;;;;10316379;28;20141;-84
2023/09/05 07:45:06;;;;;;;2.63;0.70;;;;;;;;;;10301245;28;20252;-84
2023/09/05 07:50:10;;;;;;;0.77;0.63;;;;;;;;;;10317363;28;20576;-84
2023/09/05 07:55:15;;;;;;;1.40;0.90;;;;;;;;;;10299935;28;20112;-84
2023/09/05 08:00:20;;;;;;;2.00;0.80;;;;;;;;;;10308144;28;20740;-84
2023/09/05 08:05:25;;;;;;;1.38;1.00;;;;;;;;;;10298915;28;20057;-84
2023/09/05 08:10:37;;;;;;;0.60;0.60;;;;;;;;;;10298599;28;20089;-84
2023/09/05 08:15:41;;;;;;;1.73;0.90;;;;;;;;;;10294407;23;20051;-84
2023/09/05 08:20:46;;;;;;;0.98;0.80;;;;;;;;;;10274932;28;20038;-83
2023/09/05 08:25:51;;;;;;;2.20;0.88;;;;;;;;;;10272794;28;20127;-83
2023/09/05 08:30:59;;;;;;;0.90;0.80;;;;;;;;;;10274547;28;20090;-83
2023/09/05 08:36:09;;;;;;;2.60;0.90;;;;;;;;;;10291191;28;20214;-83
2023/09/05 08:41:13;;;;;;;1.43;0.70;;;;;;;;;;10275660;28;20041;-83
2023/09/05 08:46:18;;;;;;;0.60;0.60;;;;;;;;;;10269041;28;20062;-83
2023/09/05 08:51:22;;;;;;;0.70;0.60;;;;;;;;;;10266389;28;20070;-83
2023/09/05 08:56:27;;;;;;;0.82;0.77;;;;;;;;;;10274449;28;20049;-84
2023/09/05 09:01:33;;;;;;;0.65;0.60;;;;;;;;;;10289600;28;20098;-84
2023/09/05 09:06:38;;;;;;;1.55;0.68;;;;;;;;;;10273950;28;20042;-84
2023/09/05 09:11:43;;;;;;;1.30;0.68;;;;;;;;;;10278454;28;20752;-84
2023/09/05 09:16:47;;;;;;;1.02;0.82;;;;;;;;;;10315159;28;20132;-84
2023/09/05 09:21:50;;;;;;;0.77;0.65;;;;;;;;;;10292773;28;20046;-84
2023/09/05 09:26:55;;;;;;;0.63;0.63;;;;;;;;;;10297577;28;20549;-84
2023/09/05 09:32:06;;;;;;;1.42;0.70;;;;;;;;;;10296545;28;20057;-84
2023/09/05 09:37:10;;;;;;;1.13;0.80;;;;;;;;;;10296197;28;20038;-84
2023/09/05 09:42:22;;;;;;;0.73;0.60;;;;;;;;;;10312181;28;20534;-84
2023/09/05 09:47:30;;;;;;;1.05;0.80;;;;;;;;;;10288603;28;20153;-84
2023/09/05 09:52:39;;;;;;;1.10;0.77;;;;;;;;;;10311705;28;20097;-84
2023/09/05 09:57:47;;;;;;;0.80;0.73;;;;;;;;;;10314441;28;20069;-85
2023/09/05 10:02:52;;;;;;;1.27;0.70;;;;;;;;;;10311858;28;20073;-84
2023/09/05 10:07:56;;;;;;;1.07;0.77;;;;;;;;;;10313885;28;20038;-85
2023/09/05 10:13:02;;;;;;;1.08;0.82;;;;;;;;;;10310778;28;20101;-84
2023/09/05 10:18:07;;;;;;;1.48;0.80;;;;;;;;;;10311884;28;20064;-84
2023/09/05 10:23:11;;;;;;;1.52;0.85;;;;;;;;;;10318284;28;20096;-84
2023/09/05 10:28:16;;;;;;;1.48;0.82;;;;;;;;;;10301906;28;20055;-84
2023/09/05 10:33:33;;;;;;;1.00;0.60;;;;;;;;;;10319637;28;20100;-84
2023/09/05 10:38:36;;;;;;;0.77;0.60;;;;;;;;;;10304221;28;20072;-84
2023/09/05 10:43:55;;;;;;;0.80;0.70;;;;;;;;;;10320277;28;20142;-83
2023/09/05 10:49:11;;;;;;;0.47;0.47;;;;;;;;;;10304445;28;20038;-84
2023/09/05 10:54:31;;;;;;;0.65;0.60;;;;;;;;;;10318770;28;20049;-84
2023/09/05 10:59:36;;;;;;;0.57;0.50;;;;;;;;;;10306925;28;20457;-84
2023/09/05 11:04:44;;;;;;;1.40;0.60;;;;;;;;;;10322274;28;20093;-84
2023/09/05 11:09:49;;;;;;;1.05;0.70;;;;;;;;;;10299263;28;20405;-84
2023/09/05 11:14:55;;;;;;;0.80;0.80;;;;;;;;;;10308169;28;20046;-84
2023/09/05 11:19:59;;;;;;;0.77;0.68;;;;;;;;;;10320428;28;20807;-84
2023/09/05 11:25:07;;;;;;;1.45;0.85;;;;;;;;;;10319802;28;20054;-84
2023/09/05 11:30:16;;;;;;;1.42;0.65;;;;;;;;;;10316790;28;20117;-84
2023/09/05 11:35:19;;;;;;;0.82;0.70;;;;;;;;;;10317518;28;20054;-82
2023/09/05 11:40:25;;;;;;;1.75;0.82;;;;;;;;;;10316285;28;20079;-84
2023/09/05 11:45:29;;;;;;;;;;;;;;;;;;10301591;28;20069;-84
2023/09/05 11:50:33;;;;;;;0.52;0.52;;;;;;;;;;10314539;28;20415;-84
2023/09/05 11:55:37;;;;;;;0.77;0.57;;;;;;;;;;10300911;28;20046;-84
2023/09/05 12:00:44;;;;;;;0.80;0.65;;;;;;;;;;10317395;28;20529;-84
2023/09/05 12:05:51;;;;;;;0.57;0.57;;;;;;;;;;10316974;28;20074;-84
2023/09/05 12:10:55;;;;;;;0.70;0.60;;;;;;;;;;10299622;28;20066;-84
2023/09/05 12:16:00;;;;;;;2.20;0.70;;;;;;;;;;10316643;28;20769;-84
2023/09/05 12:21:04;;;;;;;1.60;0.80;;;;;;;;;;10299937;28;20042;-83
2023/09/05 12:26:07;;;;;;;1.35;0.70;;;;;;;;;;10317252;28;20101;-84
2023/09/05 12:31:14;;;;;;;1.33;0.80;;;;;;;;;;10314830;28;20039;-84
2023/09/05 12:36:19;;;;;;;0.85;0.63;;;;;;;;;;10300009;28;20788;-83
2023/09/05 12:41:22;;;;;;;0.93;0.55;;;;;;;;;;10315794;28;20129;-84
2023/09/05 12:46:27;;;;;;;1.27;0.75;;;;;;;;;;10298110;28;20133;-83
2023/09/05 12:51:33;;;;;;;0.95;0.52;;;;;;;;;;10308793;28;20043;-84
2023/09/05 12:56:36;;;;;;;0.60;0.50;;;;;;;;;;10314814;28;20078;-84
2023/09/05 13:01:41;;;;;;;1.13;0.52;;;;;;;;;;10315198;28;20046;-84
2023/09/05 13:06:47;;;;;;;0.50;0.50;;;;;;;;;;10293063;28;20403;-84
2023/09/05 13:11:50;;;;;;;0.88;0.68;;;;;;;;;;10314926;28;20113;-84
2023/09/05 13:16:55;;;;;;;0.80;0.60;;;;;;;;;;10293422;28;20092;-84
2023/09/05 13:21:59;;;;;;;1.02;0.82;;;;;;;;;;10313104;28;20122;-84
2023/09/05 13:27:02;;;;;;;0.70;0.60;;;;;;;;;;10294796;28;20055;-84
2023/09/05 13:32:09;;;;;;;0.60;0.60;;;;;;;;;;10313625;28;20038;-84
2023/09/05 13:37:13;;;;;;;0.60;0.50;;;;;;;;;;10314969;28;20054;-84
2023/09/05 13:42:16;;;;;;;0.60;0.50;;;;;;;;;;10296772;28;20516;-84
2023/09/05 13:47:21;;;;;;;1.33;0.63;;;;;;;;;;10295757;28;20121;-83
2023/09/05 13:52:25;;;;;;;1.05;0.73;;;;;;;;;;10312258;28;20116;-84
2023/09/05 13:57:28;;;;;;;0.95;0.70;;;;;;;;;;10312337;28;20080;-84
2023/09/05 14:02:33;;;;;;;0.90;0.65;;;;;;;;;;10312171;28;20457;-83
2023/09/05 14:07:40;;;;;;;0.98;0.68;;;;;;;;;;10312486;28;20137;-83
2023/09/05 14:12:43;;;;;;;1.60;0.60;;;;;;;;;;10356751;23;20615;-79
2023/09/05 14:17:48;;;;;;;1.10;0.57;;;;;;;;;;10408027;28;20552;-80
2023/09/05 14:22:52;;;;;;;0.82;0.80;;;;;;;;;;10390442;28;20061;-79
2023/09/05 14:27:55;;;;;;;0.77;0.50;;;;;;;;;;10408749;28;20056;-81
2023/09/05 14:33:00;;;;;;;1.52;0.90;;;;;;;;;;10404787;28;20513;-81
2023/09/05 14:38:05;;;;;;;1.63;0.50;;;;;;;;;;10408352;28;20524;-80
2023/09/05 14:43:08;;;;;;;1.30;0.80;;;;;;;;;;10400716;28;20045;-80
2023/09/05 14:48:13;;;;;;;1.40;0.75;;;;;;;;;;10382833;28;20043;-80
2023/09/05 14:53:17;;;;;;;1.92;0.80;;;;;;;;;;10407596;28;20038;-80
2023/09/05 14:58:21;;;;;;;0.73;0.57;;;;;;;;;;10402887;28;20053;-81
2023/09/05 15:03:26;;;;;;;0.70;0.60;;;;;;;;;;10406530;28;20038;-80
2023/09/05 15:08:30;;;;;;;0.45;0.45;;;;;;;;;;10411152;28;20597;-81
2023/09/05 15:13:34;;;;;;;0.50;0.43;;;;;;;;;;10380499;28;20048;-80
2023/09/05 15:18:39;;;;;;;1.17;0.40;;;;;;;;;;10406971;28;20042;-81
2023/09/05 15:23:42;;;;;;;0.82;0.50;;;;;;;;;;10414658;28;20041;-79
2023/09/05 15:28:45;;;;;;;0.98;0.50;;;;;;;;;;10407749;28;20079;-81
2023/09/05 15:33:52;;;;;;;3.40;1.08;;;;;;;;;;10413053;28;20048;-81
2023/09/05 15:38:55;;;;;;;0.50;0.50;;;;;;;;;;10413358;28;20172;-80
2023/09/05 15:43:59;;;;;;;1.30;0.50;;;;;;;;;;10413097;28;20096;-80
2023/09/05 15:49:04;;;;;;;0.77;0.60;;;;;;;;;;10407675;28;20414;-80
2023/09/05 15:54:07;;;;;;;;;;;;;;;;;;10413072;28;20746;-81
2023/09/05 15:59:11;;;;;;;0.85;0.50;;;;;;;;;;10396175;28;19921;-80
2023/09/05 16:04:15;;;;;;;1.33;0.75;;;;;;;;;;10414817;28;20076;-81
2023/09/05 16:09:20;;;;;;;0.63;0.60;;;;;;;;;;10415492;28;20049;-80
2023/09/05 16:14:25;;;;;;;0.95;0.50;;;;;;;;;;10415169;28;20387;-81
2023/09/05 16:19:30;;;;;;;0.60;0.60;;;;;;;;;;10413334;28;20045;-80
2023/09/05 16:24:34;;;;;;;1.00;0.57;;;;;;;;;;10410948;28;20050;-80
2023/09/05 16:29:37;;;;;;;1.02;0.70;;;;;;;;;;10402857;28;20045;-80
2023/09/05 16:34:42;;;;;;;1.13;0.65;;;;;;;;;;10391012;28;20049;-80
2023/09/05 16:39:45;;;;;;;0.98;0.70;;;;;;;;;;10371347;28;20141;-81
2023/09/05 16:44:49;;;;;;;0.60;0.50;;;;;;;;;;10378386;28;20054;-81
2023/09/05 16:49:55;;;;;;;0.80;0.50;;;;;;;;;;10389716;28;20514;-81
2023/09/05 16:54:58;;;;;;;0.40;0.40;;;;;;;;;;10384025;28;20053;-81
2023/09/05 17:00:02;;;;;;;0.85;0.40;;;;;;;;;;10391324;28;20175;-81
2023/09/05 17:05:08;;;;;;;1.13;0.50;;;;;;;;;;10409656;28;20060;-81
2023/09/05 17:10:15;;;;;;;1.23;0.63;;;;;;;;;;10391936;28;20411;-81
2023/09/05 17:15:18;;;;;;;0.93;0.80;;;;;;;;;;10410007;28;20045;-81
2023/09/05 17:20:24;;;;;;;1.08;0.95;;;;;;;;;;10392630;28;20043;-81
2023/09/05 17:25:27;;;;;;;0.95;0.60;;;;;;;;;;10407886;28;20075;-81
2023/09/05 17:30:31;;;;;;;0.63;0.50;;;;;;;;;;10406947;28;20041;-81
2023/09/05 17:35:36;;;;;;;0.77;0.55;;;;;;;;;;10402849;28;20045;-81
2023/09/05 17:40:44;;;;;;;1.15;0.73;;;;;;;;;;10410210;28;20048;-81
2023/09/05 17:45:48;;;;;;;0.50;0.50;;;;;;;;;;10403575;28;20037;-80
2023/09/05 17:51:02;;;;;;;0.80;0.68;;;;;;;;;;10385358;28;20045;-80
2023/09/05 17:56:06;;;;;;;1.27;0.80;;;;;;;;;;10390398;28;20041;-81
2023/09/05 18:01:11;;;;;;;3.20;0.68;;;;;;;;;;10391077;28;20502;-81
2023/09/05 18:06:15;;;;;;;0.85;0.70;;;;;;;;;;10389718;28;20045;-81
2023/09/05 18:11:19;;;;;;;1.00;0.90;;;;;;;;;;10409556;28;20041;-81
2023/09/05 18:16:22;;;;;;;2.60;0.75;;;;;;;;;;10382574;28;20334;-81
2023/09/05 18:21:31;;;;;;;1.02;0.90;;;;;;;;;;10403840;28;20421;-81
2023/09/05 18:26:35;;;;;;;2.58;0.80;;;;;;;;;;10407913;28;20041;-81
2023/09/05 18:31:39;;;;;;;1.02;0.80;;;;;;;;;;10391005;28;20298;-80
2023/09/05 18:36:44;;;;;;;0.63;0.60;;;;;;;;;;10415675;28;20132;-81
2023/09/05 18:41:48;;;;;;;2.03;0.67;;;;;;;;;;10412517;28;20064;-80
2023/09/05 18:46:51;;;;;;;1.23;0.80;;;;;;;;;;10397305;28;20040;-80
2023/09/05 18:51:56;;;;;;;0.90;0.70;;;;;;;;;;10416480;28;20047;-80
2023/09/05 18:57:00;;;;;;;2.07;0.80;;;;;;;;;;10391405;28;20044;-81
2023/09/05 19:02:03;;;;;;;0.68;0.68;;;;;;;;;;10398213;28;20085;-81
2023/09/05 19:07:08;;;;;;;1.88;0.85;;;;;;;;;;10410189;28;20120;-81
2023/09/05 19:12:13;;;;;;;0.90;0.80;;;;;;;;;;10394407;28;20033;-81
2023/09/05 19:17:17;;;;;;;2.28;0.93;;;;;;;;;;10414369;28;20033;-81
2023/09/05 19:22:22;;;;;;;1.02;0.70;;;;;;;;;;10397672;28;20049;-80
2023/09/05 19:27:26;;;;;;;1.98;1.20;;;;;;;;;;10414321;28;20045;-81
2023/09/05 19:32:30;;;;;;;3.10;1.17;;;;;;;;;;10402823;28;20050;-81
2023/09/05 19:37:36;;;;;;;1.80;1.02;;;;;;;;;;10415972;28;20065;-81
2023/09/05 19:42:39;;;;;;;2.50;1.07;;;;;;;;;;10415578;28;20041;-81
2023/09/05 19:47:42;;;;;;;3.42;1.05;;;;;;;;;;10413202;28;20046;-81
2023/09/05 19:52:47;;;;;;;2.13;1.30;;;;;;;;;;10388507;28;20490;-81
2023/09/05 19:57:51;;;;;;;1.27;1.00;;;;;;;;;;10412533;28;20044;-81
2023/09/05 20:02:55;;;;;;;1.80;0.90;;;;;;;;;;10396757;28;20602;-81
2023/09/05 20:07:59;;;;;;;2.65;1.27;;;;;;;;;;10389283;28;20037;-81
2023/09/05 20:13:03;;;;;;;1.45;0.95;;;;;;;;;;10406418;28;20046;-81
2023/09/05 20:18:07;;;;;;;2.03;1.13;;;;;;;;;;10406202;28;20145;-81
2023/09/05 20:23:11;;;;;;;2.83;1.15;;;;;;;;;;10413508;28;20045;-81
2023/09/05 20:28:15;;;;;;;1.85;1.40;;;;;;;;;;10389112;28;20402;-81
2023/09/05 20:33:18;;;;;;;4.63;1.50;;;;;;;;;;10412707;28;20041;-81
2023/09/05 20:38:23;;;;;;;2.88;1.60;;;;;;;;;;10410295;28;20033;-82
2023/09/05 20:43:27;;;;;;;2.55;1.25;;;;;;;;;;10412965;28;20457;-81
2023/09/05 20:48:30;;;;;;;1.58;1.17;;;;;;;;;;10409770;28;20513;-82
2023/09/05 20:53:38;;;;;;;3.15;1.33;;;;;;;;;;10412272;28;20064;-81
2023/09/05 20:58:42;;;;;;;1.50;1.30;;;;;;;;;;10397790;28;20050;-82
2023/09/05 21:03:46;;;;;;;1.60;1.20;;;;;;;;;;10411617;28;20571;-83
2023/09/05 21:08:51;;;;;;;3.78;1.58;;;;;;;;;;10401970;28;20045;-82
2023/09/05 21:13:55;;;;;;;2.70;1.50;;;;;;;;;;10394868;28;20076;-83
2023/09/05 21:19:00;;;;;;;3.85;1.30;;;;;;;;;;10386758;28;20045;-83
2023/09/05 21:24:05;;;;;;;1.90;1.20;;;;;;;;;;10404320;28;20053;-82
2023/09/05 21:29:08;;;;;;;1.50;1.20;;;;;;;;;;10412273;28;20045;-83
2023/09/05 21:34:12;;;;;;;2.65;0.98;;;;;;;;;;10395143;28;20045;-83
2023/09/05 21:39:17;;;;;;;1.50;0.98;;;;;;;;;;10393583;28;20091;-83
2023/09/05 21:44:20;;;;;;;1.67;0.98;;;;;;;;;;10413351;28;20049;-83
2023/09/05 21:49:24;;;;;;;1.25;1.10;;;;;;;;;;10392124;28;20049;-83
2023/09/05 21:54:29;;;;;;;2.50;0.95;;;;;;;;;;10403877;28;20037;-82
2023/09/05 21:59:32;;;;;;;1.52;0.93;;;;;;;;;;10413862;28;20048;-83
2023/09/05 22:04:36;;;;;;;1.98;1.20;;;;;;;;;;10403791;28;20517;-83
2023/09/05 22:09:41;;;;;;;1.25;0.98;;;;;;;;;;10392493;28;20068;-83
2023/09/05 22:14:45;;;;;;;2.35;1.00;;;;;;;;;;10393631;28;20045;-83
2023/09/05 22:19:48;;;;;;;1.10;1.00;;;;;;;;;;10415340;28;20049;-82
2023/09/05 22:24:53;;;;;;;2.10;0.88;;;;;;;;;;10418431;28;20041;-83
2023/09/05 22:29:57;;;;;;;0.98;0.90;;;;;;;;;;10400149;28;20053;-83
2023/09/05 22:35:00;;;;;;;1.02;0.90;;;;;;;;;;10419706;28;20041;-83
2023/09/05 22:40:10;;;;;;;1.90;1.20;;;;;;;;;;10411632;28;20037;-83
2023/09/05 22:45:14;;;;;;;1.13;0.90;;;;;;;;;;10411607;28;20047;-82
2023/09/05 22:50:18;;;;;;;0.95;0.82;;;;;;;;;;10397961;28;20478;-83
2023/09/05 22:55:24;;;;;;;3.97;1.10;;;;;;;;;;10421892;28;20498;-81
2023/09/05 23:00:28;;;;;;;1.40;1.05;;;;;;;;;;10400750;28;20046;-82
2023/09/05 23:05:31;;;;;;;1.38;1.00;;;;;;;;;;10416192;28;20052;-83
2023/09/05 23:10:37;;;;;;;2.13;1.20;;;;;;;;;;10398967;28;20049;-82
2023/09/05 23:15:41;;;;;;;0.98;0.82;;;;;;;;;;10416572;28;20037;-81
2023/09/05 23:20:48;;;;;;;1.45;1.05;;;;;;;;;;10416555;28;20045;-81
2023/09/05 23:25:53;;;;;;;2.05;0.80;;;;;;;;;;10398153;28;20045;-83
2023/09/05 23:30:58;;;;;;;2.83;1.38;;;;;;;;;;10396674;28;20045;-82
2023/09/05 23:36:02;;;;;;;2.10;0.90;;;;;;;;;;10407925;28;20425;-83
2023/09/05 23:41:06;;;;;;;1.23;0.98;;;;;;;;;;10389536;28;20115;-83
2023/09/05 23:46:10;;;;;;;1.65;1.10;;;;;;;;;;10397924;28;20045;-83
2023/09/05 23:51:14;;;;;;;1.30;0.93;;;;;;;;;;10396831;28;20609;-82
2023/09/05 23:56:19;;;;;;;2.67;0.90;;;;;;;;;;10415315;28;20391;-83
